Share

Deer Park, AL (36529)

2:03 AM CDT on April 25, 2014 (GMT -0500)
Markwood (KALCITRO1) Elev 308 ft | 31.08 °N, 88.24 °W | Change Station

Current weather conditions updated 19 seconds ago

Overcast
Overcast
67.8 °F
Feels Like 67.8 °F
N
0.0
Wind Variable Wind from NW
Gusts 4.0 mph
Sunrise 6:14 AM
Sunset 7:28 PM
Moon Waning Crescent

Today is forecast to be nearly the same temperature as yesterday.

Pressure 29.92 in
Visibility 8.0 miles
Clouds Overcast 9000 ft
Dew Point 66 °F
Humidity 95%
Rainfall 0.00 in
Snow Depth Not available.
UV 0 out of 16
Pollen 6.90 out of 12
Air Quality Not available.
Flu Activity Sporadic
METAR KMOB 250656Z AUTO 23005KT 8SM OVC090 20/20 A2993 RMK AO2 SLP131 T02000200

More Conditions Fewer Conditions

Pressure 29.92 in
Visibility 8.0 miles
Clouds Overcast 9000 ft
Dew Point 66 °F
Humidity 95%
Rainfall 0.00 in
Snow Depth Not available.
UV 0 out of 16
Pollen 6.90 out of 12
Air Quality Not available.
Flu Activity Sporadic
METAR KMOB 250656Z AUTO 23005KT 8SM OVC090 20/20 A2993 RMK AO2 SLP131 T02000200

More Conditions Fewer Conditions

10-Day Weather Forecast

Almanac

Astronomy

Apr. 25, 2014 Rise Set
Actual Time 6:14 AM CDT 7:28 PM CDT
Civil Twilight 5:49 AM CDT 7:53 PM CDT
Nautical Twilight 5:18 AM CDT 8:24 PM CDT
Astronomical Twilight 4:47 AM CDT 8:55 PM CDT
Moon 3:46 AM CDT 4:04 PM CDT
Length of Visible Light 14h 04m
Length of Day
13h 14m
Tomorrow will be 1m 41s longer.
Waning Crescent, 19% of the Moon is Illuminated
Today
Waning Crescent
Apr 29
New
May 6
First Quarter
May 14
Full
May 21
Last Quarter

Today's Extremes

State Highs State Lows

Community

  • Deer in evening light
    Deer in evening light
  • Critter
    Critter
  • Jone Runs Falls
    Jone Runs Falls
  • Easter in Shenandoah National Park
    Easter in Shenandoah National Park
  • Sunset at Apalachicola Bay, Florida
    Sunset at Apalachicola Bay, Florida

WunderPhotos

Upload Photos

1,704,870 photos uploaded!

WunderBlogs® & News

Nearby

Snow Depth

Station Depth Elevation
No new snow has been reported.

Coastal Water Temperatures

Place Temperature
Mobile State Docks, AL 66.0 °F
Coast Guard Sector Mobile, AL 71.1 °F

Earthquake Activity

City Distance Mag. Time & Date
No recent earthquake activity has been reported nearby.
Minimum magnitude displayed is 2.5.

Nearby Weather Stations

Station Location Temp. Dew Point Humidity Wind Precip. Elev Updated Type
Markwood, Citronelle, AL 67.8 °F 66 °F 95% NW  at  0.0 mph 0.00 in / hr 308 ft 2:02 AM CDT Normal
RAWS GREENE MS, Leakesville, MS 68 °F 65 °F 91% North  at  0 mph 0.00 in / hr 155 ft 1:14 AM CDT MADIS

Show More Stations Show Fewer Stations

What do you think?

We're not finished. Please let us know what you like, what you don't like, and what you are still missing.